createdAt,value
2023-05-13T00:00:57.984Z,38.00
2023-05-13T00:07:01.393Z,35.78
2023-05-13T00:13:04.906Z,34.70
2023-05-13T00:19:09.801Z,32.78
2023-05-13T00:25:13.296Z,29.00
2023-05-13T00:31:16.857Z,26.85
2023-05-13T00:37:21.674Z,30.02
2023-05-13T00:43:25.081Z,29.67
2023-05-13T00:49:28.902Z,28.92
2023-05-13T00:55:33.751Z,29.45
2023-05-13T01:01:43.788Z,25.42
2023-05-13T01:07:50.501Z,33.53
2023-05-13T01:13:59.715Z,29.85
2023-05-13T01:20:04.958Z,28.67
2023-05-13T01:26:09.725Z,35.42
2023-05-13T01:32:14.521Z,27.35
2023-05-13T01:38:20.838Z,25.40
2023-05-13T01:44:25.679Z,30.75
2023-05-13T01:50:29.096Z,29.58
2023-05-13T01:56:32.588Z,30.27
2023-05-13T02:02:37.411Z,28.02
2023-05-13T02:08:40.892Z,26.92
2023-05-13T02:14:44.316Z,28.58
2023-05-13T02:20:49.199Z,33.42
2023-05-13T02:26:53.026Z,31.83
2023-05-13T02:32:56.889Z,33.30
2023-05-13T02:39:01.984Z,29.73
2023-05-13T02:45:05.597Z,31.83
2023-05-13T02:51:09.631Z,32.00
2023-05-13T02:57:14.873Z,34.15
2023-05-13T03:03:18.417Z,30.52
2023-05-13T03:09:22.002Z,33.17
2023-05-13T03:15:27.102Z,27.40
2023-05-13T03:21:30.524Z,30.95
2023-05-13T03:27:33.921Z,28.00
2023-05-13T03:33:38.670Z,30.88
2023-05-13T03:39:43.082Z,36.17
2023-05-13T03:45:48.458Z,29.58
2023-05-13T03:51:53.222Z,25.40
2023-05-13T03:57:56.653Z,29.70
2023-05-13T04:04:00.077Z,31.02
2023-05-13T04:10:04.963Z,28.35
2023-05-13T04:16:08.562Z,27.15
2023-05-13T04:22:12.020Z,27.13
2023-05-13T04:28:18.108Z,30.13
2023-05-13T04:34:21.558Z,30.90
2023-05-13T04:40:25.060Z,29.88
2023-05-13T04:46:30.011Z,26.25
2023-05-13T04:52:33.537Z,26.95
2023-05-13T04:58:37.157Z,24.70
2023-05-13T05:04:41.915Z,25.52
2023-05-13T05:10:45.463Z,24.88
2023-05-13T05:16:48.914Z,31.77
2023-05-13T05:22:53.703Z,25.00
2023-05-13T05:28:57.130Z,24.58
2023-05-13T05:35:02.860Z,24.58
2023-05-13T05:41:08.076Z,22.80
2023-05-13T05:47:11.606Z,25.83
2023-05-13T05:53:15.705Z,27.15
2023-05-13T05:59:20.527Z,25.60
2023-05-13T06:05:24.129Z,21.10
2023-05-13T06:11:27.684Z,22.45
2023-05-13T06:17:32.759Z,22.60
2023-05-13T06:23:36.171Z,26.25
2023-05-13T06:29:39.842Z,21.85
2023-05-13T06:35:48.111Z,22.38
2023-05-13T06:41:51.525Z,18.77
2023-05-13T06:47:55.117Z,16.33
2023-05-13T06:53:59.944Z,21.30
2023-05-13T07:00:04.072Z,17.40
2023-05-13T07:06:07.776Z,16.40
2023-05-13T07:12:12.558Z,18.65
2023-05-13T07:18:16.163Z,17.95
2023-05-13T07:24:19.599Z,17.15
2023-05-13T07:30:24.786Z,15.18
2023-05-13T07:36:29.004Z,13.07
2023-05-13T07:42:32.903Z,15.13
2023-05-13T07:48:37.700Z,18.65
2023-05-13T07:54:41.288Z,17.27
2023-05-13T08:00:44.894Z,13.63
2023-05-13T08:06:49.662Z,16.27
2023-05-13T08:12:57.731Z,14.43
2023-05-13T08:19:01.617Z,16.27
2023-05-13T08:25:06.957Z,17.00
2023-05-13T08:31:10.468Z,15.60
2023-05-13T08:37:14.077Z,10.10
2023-05-13T08:43:18.947Z,11.68
2023-05-13T08:49:22.612Z,12.35
2023-05-13T08:55:26.151Z,10.88
2023-05-13T09:01:32.106Z,16.25
2023-05-13T09:07:35.689Z,16.52
2023-05-13T09:13:39.110Z,10.95
2023-05-13T09:19:44.099Z,13.02
2023-05-13T09:25:47.663Z,14.38
2023-05-13T09:31:51.832Z,14.35
2023-05-13T09:37:56.883Z,15.88
2023-05-13T09:44:00.529Z,17.27
2023-05-13T09:50:04.492Z,13.85
2023-05-13T09:56:11.748Z,15.15
2023-05-13T10:02:17.522Z,14.13
2023-05-13T10:08:21.109Z,18.60
2023-05-13T10:14:26.207Z,17.48
2023-05-13T10:20:30.006Z,13.95
2023-05-13T10:26:34.388Z,16.73
2023-05-13T10:32:40.211Z,18.08
2023-05-13T10:38:52.932Z,16.67
2023-05-13T10:44:56.847Z,17.58
2023-05-13T10:51:03.513Z,16.27
2023-05-13T10:57:07.167Z,14.77
2023-05-13T11:03:14.514Z,17.50
2023-05-13T11:09:32.239Z,14.10
2023-05-13T11:15:45.634Z,15.18
2023-05-13T11:21:50.248Z,17.67
2023-05-13T11:27:55.568Z,17.92
2023-05-13T11:34:09.747Z,18.00
2023-05-13T11:40:14.013Z,17.00
2023-05-13T11:46:22.869Z,15.68
2023-05-13T11:52:26.423Z,19.55
2023-05-13T11:58:29.853Z,15.82
2023-05-13T12:04:34.640Z,17.10
2023-05-13T12:10:44.617Z,17.38
2023-05-13T12:16:48.193Z,15.55
2023-05-13T12:22:53.829Z,16.85
2023-05-13T12:29:00.910Z,16.20
2023-05-13T12:35:04.489Z,17.38
2023-05-13T12:41:14.270Z,21.33
2023-05-13T12:47:20.198Z,19.13
2023-05-13T12:53:23.681Z,17.92
2023-05-13T12:59:30.433Z,19.15
2023-05-13T13:05:34.181Z,17.38
2023-05-13T13:11:37.585Z,19.33
2023-05-13T13:17:42.762Z,18.65
2023-05-13T13:23:49.410Z,16.10
2023-05-13T13:29:52.801Z,16.90
2023-05-13T13:35:57.897Z,17.92
2023-05-13T13:42:01.288Z,15.07
2023-05-13T13:48:04.821Z,17.60
2023-05-13T13:54:09.789Z,16.67
2023-05-13T14:00:14.462Z,17.35
2023-05-13T14:06:17.998Z,18.25
2023-05-13T14:12:22.804Z,16.95
2023-05-13T14:18:26.518Z,17.23
2023-05-13T14:24:29.986Z,15.07
2023-05-13T14:30:34.803Z,18.00
2023-05-13T14:36:38.403Z,18.40
2023-05-13T14:42:41.768Z,18.13
2023-05-13T14:48:46.524Z,19.02
2023-05-13T14:54:50.144Z,19.55
2023-05-13T15:00:53.758Z,20.65
2023-05-13T15:06:58.712Z,16.40
2023-05-13T15:13:02.162Z,15.80
2023-05-13T15:19:05.616Z,16.95
2023-05-13T15:25:10.880Z,18.52
2023-05-13T15:31:14.351Z,16.35
2023-05-13T15:37:18.015Z,19.13
2023-05-13T15:43:22.921Z,16.73
2023-05-13T15:49:27.365Z,15.35
2023-05-13T15:55:32.168Z,18.02
2023-05-13T16:01:39.274Z,14.38
2023-05-13T16:07:42.925Z,16.00
2023-05-13T16:13:48.033Z,12.40
2023-05-13T16:19:53.120Z,11.95
2023-05-13T16:25:56.629Z,15.32
2023-05-13T16:32:00.305Z,18.35
2023-05-13T16:38:05.175Z,16.88
2023-05-13T16:44:08.728Z,16.48
2023-05-13T16:50:12.610Z,15.43
2023-05-13T16:56:17.487Z,17.17
2023-05-13T17:02:20.977Z,16.15
2023-05-13T17:08:25.476Z,17.77
2023-05-13T17:14:30.342Z,16.02
2023-05-13T17:20:33.743Z,17.35
2023-05-13T17:26:38.751Z,17.85
2023-05-13T17:32:43.997Z,15.25
2023-05-13T17:38:47.721Z,16.92
2023-05-13T17:44:51.181Z,16.33
2023-05-13T17:50:56.220Z,18.90
2023-05-13T17:56:59.591Z,18.08
2023-05-13T18:03:03.114Z,18.55
2023-05-13T18:09:07.917Z,17.48
2023-05-13T18:15:11.615Z,16.73
2023-05-13T18:21:15.054Z,20.25
2023-05-13T18:27:19.856Z,19.65
2023-05-13T18:33:23.331Z,18.48
2023-05-13T18:39:26.976Z,20.23
2023-05-13T18:45:32.098Z,17.92
2023-05-13T18:51:36.750Z,19.10
2023-05-13T18:57:40.438Z,19.02
2023-05-13T19:03:48.167Z,19.85
2023-05-13T19:09:52.387Z,20.48
2023-05-13T19:15:56.268Z,19.83
2023-05-13T19:22:01.147Z,21.13
2023-05-13T19:28:04.677Z,25.20
2023-05-13T19:34:08.226Z,28.60
2023-05-13T19:40:13.592Z,23.15
2023-05-13T19:46:17.020Z,23.85
2023-05-13T19:52:20.898Z,20.50
2023-05-13T19:58:26.359Z,24.80
2023-05-13T20:04:30.387Z,25.55
2023-05-13T20:10:35.525Z,28.75
2023-05-13T20:16:40.971Z,24.60
2023-05-13T20:22:44.534Z,26.25
2023-05-13T20:28:48.735Z,25.42
2023-05-13T20:34:54.781Z,27.35
2023-05-13T20:40:58.219Z,26.20
2023-05-13T20:47:01.772Z,23.83
2023-05-13T20:53:07.185Z,23.52
2023-05-13T20:59:11.025Z,29.75
2023-05-13T21:05:14.446Z,23.58
2023-05-13T21:11:19.334Z,25.15
2023-05-13T21:17:24.479Z,26.38
2023-05-13T21:23:28.052Z,26.15
2023-05-13T21:29:33.068Z,23.67
2023-05-13T21:35:36.507Z,20.75
2023-05-13T21:41:40.093Z,23.92
2023-05-13T21:47:44.955Z,21.40
2023-05-13T21:53:49.194Z,20.70
2023-05-13T21:59:52.668Z,19.48
2023-05-13T22:05:57.725Z,22.35
2023-05-13T22:12:01.143Z,19.00
2023-05-13T22:18:04.714Z,21.58
2023-05-13T22:24:09.743Z,20.73
2023-05-13T22:30:13.364Z,21.58
2023-05-13T22:36:16.988Z,23.88
2023-05-13T22:42:22.728Z,21.80
2023-05-13T22:48:26.837Z,27.33
2023-05-13T22:54:31.050Z,19.67
2023-05-13T23:00:36.430Z,26.33
2023-05-13T23:06:40.026Z,26.15
2023-05-13T23:12:43.421Z,21.92
2023-05-13T23:18:48.281Z,23.33
2023-05-13T23:24:51.724Z,25.65
2023-05-13T23:30:55.153Z,23.75
2023-05-13T23:37:00.035Z,24.27
2023-05-13T23:43:03.451Z,24.20
2023-05-13T23:49:06.865Z,27.27
2023-05-13T23:55:11.965Z,28.95
